Time;durP1;ratioP1;P1;durP2;ratioP2;P2;SDS_P1;SDS_P2;PMS_P1;PMS_P2;Temp;Humidity;BMP_temperature;BMP_pressure;BME280_temperature;BME280_humidity;BME280_pressure;Samples;Min_cycle;Max_cycle;Signal;HPM_P1;HPM_P2
2022/09/06 00:00:53;;;;;;;6.97;5.03;;;;;;;17.47;100.00;98251.34;5115891;28;20230;-73
2022/09/06 00:03:21;;;;;;;5.27;4.77;;;;;;;17.47;100.00;98250.47;5115816;28;20500;-73
2022/09/06 00:05:49;;;;;;;5.97;5.20;;;;;;;17.43;100.00;98249.94;5108531;28;20524;-73
2022/09/06 00:08:15;;;;;;;5.70;5.10;;;;;;;17.41;100.00;98246.56;5115836;28;20533;-73
2022/09/06 00:10:42;;;;;;;6.03;4.90;;;;;;;17.37;100.00;98242.50;5113894;28;20522;-74
2022/09/06 00:13:10;;;;;;;5.73;4.67;;;;;;;17.35;100.00;98241.78;5110379;28;20227;-73
2022/09/06 00:15:37;;;;;;;6.60;5.00;;;;;;;17.31;100.00;98226.19;5111745;28;20306;-72
2022/09/06 00:18:06;;;;;;;5.47;4.87;;;;;;;17.32;100.00;98235.88;5115371;28;20241;-73
2022/09/06 00:20:35;;;;;;;6.63;4.87;;;;;;;17.29;100.00;98234.34;5115401;28;20279;-73
2022/09/06 00:23:04;;;;;;;5.77;4.70;;;;;;;17.29;100.00;98226.31;5107807;28;20226;-73
2022/09/06 00:25:32;;;;;;;8.20;5.37;;;;;;;17.25;100.00;98232.94;5112165;28;20235;-73
2022/09/06 00:28:00;;;;;;;5.83;4.90;;;;;;;17.17;100.00;98234.66;5115332;28;20229;-73
2022/09/06 00:30:28;;;;;;;6.47;5.60;;;;;;;17.12;100.00;98226.25;5115324;28;20771;-73
2022/09/06 00:32:55;;;;;;;7.30;5.50;;;;;;;17.11;100.00;98228.06;5114703;28;20222;-73
2022/09/06 00:35:24;;;;;;;7.37;6.10;;;;;;;17.06;100.00;98238.31;5112114;28;20235;-73
2022/09/06 00:37:55;;;;;;;6.80;5.57;;;;;;;17.00;100.00;98228.22;5113278;28;20549;-73
2022/09/06 00:40:22;;;;;;;7.57;5.93;;;;;;;16.99;100.00;98244.38;5115119;28;20275;-73
2022/09/06 00:42:49;;;;;;;7.20;5.83;;;;;;;16.88;100.00;98236.56;5114015;28;20222;-73
2022/09/06 00:45:15;;;;;;;7.17;5.70;;;;;;;16.78;100.00;98236.56;5112458;28;20223;-73
2022/09/06 00:47:43;;;;;;;6.07;5.47;;;;;;;16.72;100.00;98231.78;5114990;28;20607;-72
2022/09/06 00:50:12;;;;;;;6.43;5.23;;;;;;;16.68;100.00;98219.69;5114874;28;20222;-72
2022/09/06 00:52:40;;;;;;;5.90;4.87;;;;;;;16.68;100.00;98219.69;5113799;28;20254;-72
2022/09/06 00:55:09;;;;;;;6.30;5.53;;;;;;;16.70;100.00;98217.72;5112511;28;20226;-72
2022/09/06 00:57:36;;;;;;;6.43;5.50;;;;;;;16.74;100.00;98219.13;5114709;28;20246;-72
2022/09/06 01:00:07;;;;;;;7.33;5.63;;;;;;;16.69;100.00;98220.53;5114627;28;20221;-72
2022/09/06 01:02:34;;;;;;;7.07;5.20;;;;;;;16.63;100.00;98242.47;5111237;28;20232;-72
2022/09/06 01:05:02;;;;;;;5.60;5.00;;;;;;;16.56;100.00;98231.50;5112357;28;20227;-72
2022/09/06 01:07:39;;;;;;;6.80;5.00;;;;;;;16.57;100.00;98243.03;5114549;28;20624;-72
2022/09/06 01:10:30;;;;;;;5.90;5.07;;;;;;;16.59;100.00;98236.53;5114575;28;20584;-72
2022/09/06 01:13:04;;;;;;;6.37;5.27;;;;;;;16.70;100.00;98241.75;5112258;28;20280;-72
2022/09/06 01:15:40;;;;;;;7.17;5.47;;;;;;;16.75;100.00;98228.81;5114338;28;20318;-72
2022/09/06 01:18:23;;;;;;;8.03;5.93;;;;;;;16.77;100.00;98232.19;5113936;28;20528;-72
2022/09/06 01:21:04;;;;;;;5.67;5.07;;;;;;;16.71;100.00;98230.06;5110830;28;20225;-72
2022/09/06 01:24:15;;;;;;;6.07;5.17;;;;;;;16.66;100.00;98235.03;5106452;28;20279;-72
2022/09/06 01:27:23;;;;;;;5.87;4.90;;;;;;;16.65;100.00;98246.66;5111498;28;20583;-72
2022/09/06 01:29:56;;;;;;;5.77;4.87;;;;;;;16.67;100.00;98250.03;5108531;28;20221;-72
2022/09/06 01:32:29;;;;;;;5.70;5.00;;;;;;;16.75;100.00;98258.19;5107704;28;20242;-72
2022/09/06 01:35:05;;;;;;;5.87;5.10;;;;;;;16.81;100.00;98260.28;5113961;28;20274;-72
2022/09/06 01:37:33;;;;;;;6.07;4.73;;;;;;;16.84;100.00;98245.81;5113934;28;20286;-72
2022/09/06 01:39:59;;;;;;;5.80;4.97;;;;;;;16.80;100.00;98247.06;5111693;28;20283;-72
2022/09/06 01:42:29;;;;;;;5.97;4.73;;;;;;;16.78;100.00;98260.59;5112523;28;20222;-72
2022/09/06 01:45:01;;;;;;;6.67;5.40;;;;;;;16.75;100.00;98255.50;5113866;28;20576;-72
2022/09/06 01:47:39;;;;;;;5.80;5.10;;;;;;;16.70;100.00;98265.75;5113760;28;20264;-72
2022/09/06 01:50:27;;;;;;;6.37;5.33;;;;;;;16.68;100.00;98257.06;5107737;28;20222;-72
2022/09/06 01:56:08;;;;;;;7.23;5.53;;;;;;;16.79;100.00;98259.59;5047900;28;20236;-72
2022/09/06 01:58:55;;;;;;;6.27;5.13;;;;;;;16.82;100.00;98259.28;5054616;28;20653;-72
2022/09/06 02:01:30;;;;;;;6.20;4.93;;;;;;;16.86;100.00;98258.03;5054542;28;20224;-72
2022/09/06 02:04:01;;;;;;;6.80;5.70;;;;;;;16.87;100.00;98257.06;5054438;28;20228;-72
2022/09/06 02:06:31;;;;;;;6.27;5.67;;;;;;;16.84;100.00;98252.00;5054567;28;20228;-71
2022/09/06 02:09:04;;;;;;;5.77;5.23;;;;;;;16.88;100.00;98258.72;5054536;28;20231;-72
2022/09/06 02:11:37;;;;;;;6.10;4.90;;;;;;;16.90;100.00;98261.25;5054514;28;20228;-72
2022/09/06 02:14:09;;;;;;;5.97;4.83;;;;;;;16.98;100.00;98274.75;5078206;28;20272;-72
2022/09/06 02:16:39;;;;;;;7.07;5.70;;;;;;;17.11;100.00;98356.25;5104478;28;20222;-73
2022/09/06 02:19:11;;;;;;;6.83;5.40;;;;;;;17.41;100.00;98363.28;5113019;28;20226;-72
2022/09/06 02:21:42;;;;;;;7.30;5.97;;;;;;;17.62;100.00;98359.44;5105239;28;20223;-71
2022/09/06 02:24:15;;;;;;;6.77;5.27;;;;;;;17.82;100.00;98358.44;5113347;28;20226;-72
2022/09/06 02:26:45;;;;;;;7.73;5.13;;;;;;;18.01;100.00;98336.97;5113299;28;20225;-73
2022/09/06 02:29:12;;;;;;;6.60;5.00;;;;;;;18.15;100.00;98336.47;5110655;28;20628;-72
2022/09/06 02:31:45;;;;;;;5.93;4.17;;;;;;;18.34;100.00;98333.72;5112298;28;20332;-73
2022/09/06 02:34:15;;;;;;;6.67;4.47;;;;;;;18.42;98.15;98336.50;5113204;28;20234;-72
2022/09/06 02:36:42;;;;;;;4.37;3.97;;;;;;;18.63;96.06;98328.19;5113152;28;20233;-72
2022/09/06 02:39:09;;;;;;;4.60;4.20;;;;;;;18.57;96.87;98339.50;5109672;28;20230;-71
2022/09/06 02:41:37;;;;;;;4.43;4.03;;;;;;;18.63;99.00;98329.03;5088249;28;20226;-72
2022/09/06 02:44:04;;;;;;;5.17;4.57;;;;;;;18.74;98.86;98319.94;5111331;28;20275;-73
2022/09/06 02:46:30;;;;;;;4.87;4.40;;;;;;;18.86;98.81;98335.66;5111925;28;20221;-72
2022/09/06 02:48:58;;;;;;;4.23;3.83;;;;;;;18.93;99.50;98347.44;5109502;28;20222;-72
2022/09/06 02:51:25;;;;;;;5.73;4.07;;;;;;;18.94;100.00;98354.47;5087688;28;20337;-73
2022/09/06 02:53:52;;;;;;;5.17;4.67;;;;;;;19.05;99.40;98348.91;5113095;28;20233;-73
2022/09/06 02:56:19;;;;;;;4.03;3.73;;;;;;;19.12;97.98;98325.84;5113159;28;20222;-72
2022/09/06 02:58:46;;;;;;;5.70;4.57;;;;;;;18.75;100.00;98333.19;5109926;28;20607;-70
2022/09/06 03:01:12;;;;;;;7.03;5.13;;;;;;;18.35;100.00;98323.88;5112698;28;20306;-70
2022/09/06 03:03:39;;;;;;;4.90;4.30;;;;;;;18.06;100.00;98313.31;5113041;28;20226;-68
2022/09/06 03:06:07;;;;;;;5.40;4.50;;;;;;;17.78;100.00;98287.50;5113178;28;20229;-62
2022/09/06 03:08:35;;;;;;;5.80;5.20;;;;;;;17.63;100.00;98272.91;5110243;28;20219;-61
2022/09/06 03:11:02;;;;;;;6.93;4.97;;;;;;;17.54;100.00;98263.13;5112667;28;20234;-61
2022/09/06 03:13:29;;;;;;;6.20;5.60;;;;;;;17.49;100.00;98257.38;5111241;28;20225;-60
2022/09/06 03:15:58;;;;;;;6.07;5.20;;;;;;;17.46;100.00;98260.34;5112856;28;20272;-60
2022/09/06 03:18:25;;;;;;;5.73;5.23;;;;;;;17.45;100.00;98266.69;5109792;28;20269;-61
2022/09/06 03:20:53;;;;;;;5.73;5.20;;;;;;;17.42;100.00;98264.28;5109850;28;20230;-61
2022/09/06 03:23:24;;;;;;;5.80;4.77;;;;;;;17.38;100.00;98268.22;5103791;28;20222;-62
2022/09/06 03:25:52;;;;;;;6.43;5.83;;;;;;;17.40;100.00;98271.63;5112820;28;20226;-64
2022/09/06 03:28:19;;;;;;;7.07;5.83;;;;;;;17.37;100.00;98260.34;5112048;28;20358;-64
2022/09/06 03:30:48;;;;;;;6.33;5.63;;;;;;;17.18;100.00;98258.53;5091368;28;20526;-62
2022/09/06 03:33:15;;;;;;;7.50;6.70;;;;;;;17.09;100.00;98261.25;5116519;28;20233;-62
2022/09/06 03:35:48;;;;;;;8.33;5.80;;;;;;;17.10;100.00;98273.59;5116453;28;20225;-64
2022/09/06 03:38:15;;;;;;;7.60;6.40;;;;;;;17.07;100.00;98279.25;5109874;28;20729;-65
2022/09/06 03:40:46;;;;;;;9.30;6.27;;;;;;;17.05;100.00;98276.72;5114825;28;20230;-66
2022/09/06 03:43:13;;;;;;;7.40;6.03;;;;;;;16.99;100.00;98282.63;5116264;28;20276;-67
2022/09/06 03:45:40;;;;;;;7.47;6.33;;;;;;;16.97;100.00;98273.91;5115541;28;20294;-68
2022/09/06 03:48:06;;;;;;;6.30;5.70;;;;;;;16.89;100.00;98279.09;5113168;28;20227;-68
2022/09/06 03:50:33;;;;;;;7.17;5.80;;;;;;;16.82;100.00;98275.31;5116083;28;20255;-69
2022/09/06 03:53:00;;;;;;;6.57;5.87;;;;;;;16.75;100.00;98284.88;5116161;28;20246;-69
2022/09/06 03:55:27;;;;;;;6.50;5.90;;;;;;;16.70;100.00;98271.09;5115740;28;20624;-69
2022/09/06 03:57:55;;;;;;;6.67;5.53;;;;;;;16.72;100.00;98269.16;5112599;28;20308;-69
2022/09/06 04:00:22;;;;;;;5.80;5.13;;;;;;;16.74;100.00;98277.00;5116091;28;20623;-69
2022/09/06 04:02:49;;;;;;;6.20;5.60;;;;;;;16.79;100.00;98280.94;5116030;28;20229;-68
2022/09/06 04:05:16;;;;;;;11.23;6.63;;;;;;;16.93;100.00;98288.53;5114121;28;20230;-68
2022/09/06 04:07:43;;;;;;;6.60;6.00;;;;;;;17.02;100.00;98281.50;5112335;28;20222;-70
2022/09/06 04:10:10;;;;;;;8.13;6.23;;;;;;;17.15;100.00;98282.03;5115821;28;20230;-70
2022/09/06 04:12:37;;;;;;;8.13;6.10;;;;;;;17.15;100.00;98272.19;5115797;28;20233;-68
2022/09/06 04:15:06;;;;;;;8.23;6.03;;;;;;;17.15;100.00;98266.88;5115639;28;20229;-68
2022/09/06 04:17:33;;;;;;;6.47;5.77;;;;;;;17.11;100.00;98270.78;5108545;28;20246;-69
2022/09/06 04:20:00;;;;;;;6.13;5.40;;;;;;;17.12;100.00;98267.13;5115531;28;20279;-68
2022/09/06 04:22:26;;;;;;;6.73;6.13;;;;;;;17.10;100.00;98268.25;5111922;28;20279;-69
2022/09/06 04:24:53;;;;;;;6.20;5.60;;;;;;;17.09;100.00;98271.91;5115367;28;20688;-69
2022/09/06 04:27:20;;;;;;;6.33;5.73;;;;;;;17.10;100.00;98279.78;5111714;28;20280;-68
2022/09/06 04:29:46;;;;;;;6.33;5.73;;;;;;;17.18;100.00;98281.75;5090107;28;20261;-69
2022/09/06 04:32:14;;;;;;;6.50;5.90;;;;;;;17.25;100.00;98283.69;5113735;28;20230;-69
2022/09/06 04:34:41;;;;;;;6.10;5.50;;;;;;;17.32;100.00;98279.44;5115311;28;20286;-69
2022/09/06 04:37:08;;;;;;;5.90;5.30;;;;;;;17.27;100.00;98273.72;5111760;28;20271;-69
2022/09/06 04:39:34;;;;;;;6.70;6.10;;;;;;;17.14;100.00;98265.16;5114304;28;20225;-69
2022/09/06 04:42:01;;;;;;;8.10;5.80;;;;;;;17.05;100.00;98270.50;5115235;28;20234;-69
2022/09/06 04:44:28;;;;;;;7.00;6.30;;;;;;;16.98;100.00;98264.06;5115045;28;20226;-70
2022/09/06 04:47:04;;;;;;;7.13;6.23;;;;;;;16.84;100.00;98257.34;5112095;28;21381;-69
2022/09/06 04:49:32;;;;;;;7.53;6.27;;;;;;;16.76;100.00;98259.03;5090869;28;20224;-70
2022/09/06 04:51:59;;;;;;;6.77;6.17;;;;;;;16.68;100.00;98257.06;5114855;28;20253;-70
2022/09/06 04:54:26;;;;;;;7.50;6.70;;;;;;;16.67;100.00;98260.72;5114975;28;20222;-71
2022/09/06 04:56:52;;;;;;;6.83;6.13;;;;;;;16.70;100.00;98271.09;5105990;28;20230;-72
2022/09/06 04:59:19;;;;;;;10.10;8.00;;;;;;;16.79;100.00;98280.09;5114927;28;20242;-71
2022/09/06 05:01:46;;;;;;;8.27;7.47;;;;;;;16.83;100.00;98277.00;5114950;28;20576;-72
2022/09/06 05:04:12;;;;;;;7.97;7.17;;;;;;;16.84;100.00;98288.53;5114960;28;20221;-72
2022/09/06 05:06:41;;;;;;;7.37;6.67;;;;;;;16.88;100.00;98295.28;5111036;28;20226;-72
2022/09/06 05:09:08;;;;;;;8.33;7.50;;;;;;;16.89;100.00;98292.44;5090049;28;20230;-72
2022/09/06 05:11:35;;;;;;;8.13;7.33;;;;;;;16.91;100.00;98278.97;5114579;28;20275;-72
2022/09/06 05:14:02;;;;;;;8.33;6.90;;;;;;;16.96;100.00;98282.06;5114594;28;20635;-72
2022/09/06 05:16:29;;;;;;;8.27;7.47;;;;;;;16.97;100.00;98279.25;5111038;28;20297;-72
2022/09/06 05:18:55;;;;;;;7.83;7.00;;;;;;;17.04;100.00;98291.03;5089036;28;20265;-72
2022/09/06 05:21:22;;;;;;;8.37;7.00;;;;;;;17.08;100.00;98302.28;5107771;28;20227;-72
2022/09/06 05:23:50;;;;;;;8.10;6.90;;;;;;;17.12;100.00;98293.84;5108141;28;20305;-71
2022/09/06 05:26:17;;;;;;;7.30;6.60;;;;;;;17.17;100.00;98293.41;5111101;28;20599;-71
2022/09/06 05:28:44;;;;;;;7.13;6.40;;;;;;;17.22;100.00;98297.34;5114208;28;20222;-71
2022/09/06 05:31:12;;;;;;;7.10;6.40;;;;;;;17.26;100.00;98296.06;5114428;28;20221;-71
2022/09/06 05:33:39;;;;;;;7.70;6.60;;;;;;;17.32;100.00;98302.69;5114319;28;20226;-70
2022/09/06 05:36:07;;;;;;;8.10;6.80;;;;;;;17.38;100.00;98300.28;5111054;28;20275;-71
2022/09/06 05:38:33;;;;;;;6.97;6.27;;;;;;;17.44;100.00;98305.06;5113861;28;20248;-70
2022/09/06 05:41:01;;;;;;;7.20;6.50;;;;;;;17.46;100.00;98308.44;5114253;28;20236;-71
2022/09/06 05:43:28;;;;;;;6.97;6.33;;;;;;;17.52;100.00;98313.22;5114133;28;20647;-70
2022/09/06 05:45:55;;;;;;;7.80;7.00;;;;;;;17.51;100.00;98311.53;5110987;28;20533;-71
2022/09/06 05:48:21;;;;;;;7.53;6.70;;;;;;;17.54;100.00;98305.88;5112912;28;20267;-70
2022/09/06 05:50:48;;;;;;;9.87;6.70;;;;;;;17.57;100.00;98305.59;5111605;28;20226;-70
2022/09/06 05:53:15;;;;;;;7.10;6.40;;;;;;;17.61;100.00;98303.50;5113834;28;20246;-70
2022/09/06 05:55:41;;;;;;;8.77;7.20;;;;;;;17.64;100.00;98300.50;5111161;28;20307;-70
2022/09/06 05:58:09;;;;;;;7.63;6.63;;;;;;;17.64;100.00;98304.03;5112580;28;20348;-70
2022/09/06 06:00:36;;;;;;;7.47;6.43;;;;;;;17.64;100.00;98301.38;5113636;28;20226;-70
2022/09/06 06:03:03;;;;;;;7.90;7.10;;;;;;;17.67;100.00;98303.72;5113694;28;20561;-70
2022/09/06 06:05:30;;;;;;;7.10;6.40;;;;;;;17.71;100.00;98312.28;5111346;28;20226;-70
2022/09/06 06:07:58;;;;;;;8.70;6.97;;;;;;;17.74;100.00;98306.69;5112262;28;20283;-70
2022/09/06 06:10:25;;;;;;;7.93;6.87;;;;;;;17.77;100.00;98317.91;5113590;28;20232;-70
2022/09/06 06:12:51;;;;;;;8.30;7.47;;;;;;;17.82;100.00;98312.97;5113458;28;20600;-70
2022/09/06 06:15:19;;;;;;;7.73;6.93;;;;;;;17.88;100.00;98315.06;5109685;28;20279;-70
2022/09/06 06:17:46;;;;;;;8.17;7.37;;;;;;;17.92;100.00;98316.44;5112048;28;20222;-70
2022/09/06 06:20:13;;;;;;;9.13;7.70;;;;;;;17.91;100.00;98320.09;5113310;28;20226;-70
2022/09/06 06:22:40;;;;;;;8.43;7.50;;;;;;;17.99;100.00;98319.38;5110217;28;20222;-70
2022/09/06 06:25:07;;;;;;;7.23;6.40;;;;;;;18.05;100.00;98324.97;5111409;28;20685;-70
2022/09/06 06:27:35;;;;;;;7.80;6.50;;;;;;;18.16;100.00;98318.59;5109774;28;20222;-70
2022/09/06 06:30:02;;;;;;;9.50;7.40;;;;;;;18.29;100.00;98325.25;5103141;28;20323;-71
2022/09/06 06:32:30;;;;;;;7.77;6.77;;;;;;;18.40;100.00;98322.44;5113325;28;20222;-71
2022/09/06 06:34:57;;;;;;;8.00;6.47;;;;;;;18.53;100.00;98322.91;5111438;28;20225;-70
2022/09/06 06:37:24;;;;;;;7.90;6.33;;;;;;;18.68;100.00;98318.72;5111571;28;20574;-70
2022/09/06 06:39:50;;;;;;;7.80;6.17;;;;;;;18.81;100.00;98321.88;5113269;28;20249;-70
2022/09/06 06:42:17;;;;;;;7.00;6.10;;;;;;;18.95;100.00;98329.38;5111627;28;20631;-70
2022/09/06 06:44:44;;;;;;;7.20;6.20;;;;;;;19.09;100.00;98317.28;5111785;28;20222;-70
2022/09/06 06:47:11;;;;;;;7.53;5.90;;;;;;;19.21;100.00;98324.94;5111091;28;20276;-70
2022/09/06 06:49:39;;;;;;;7.50;5.60;;;;;;;19.30;100.00;98329.38;5113203;28;20695;-70
2022/09/06 06:52:05;;;;;;;7.97;6.23;;;;;;;19.40;100.00;98327.47;5113035;28;20351;-70
2022/09/06 06:54:32;;;;;;;7.50;6.13;;;;;;;19.51;100.00;98331.72;5111841;28;20230;-70
2022/09/06 06:56:59;;;;;;;7.50;5.90;;;;;;;19.64;100.00;98332.16;5110763;28;20230;-70
2022/09/06 06:59:25;;;;;;;6.83;6.03;;;;;;;19.86;100.00;98332.44;5113106;28;20243;-70
2022/09/06 07:01:52;;;;;;;6.93;5.37;;;;;;;20.13;100.00;98329.63;5113714;28;20581;-70
2022/09/06 07:04:19;;;;;;;5.90;5.20;;;;;;;20.39;100.00;98325.03;5116165;28;20258;-70
2022/09/06 07:06:49;;;;;;;6.23;5.47;;;;;;;20.60;100.00;98320.06;5112422;28;20229;-70
2022/09/06 07:09:16;;;;;;;5.60;5.10;;;;;;;20.67;100.00;98320.25;5117187;28;20226;-71
2022/09/06 07:11:43;;;;;;;7.97;5.30;;;;;;;20.69;100.00;98319.09;5116944;28;20226;-70
2022/09/06 07:14:10;;;;;;;4.40;4.00;;;;;;;20.66;100.00;98319.41;5115911;28;20267;-70
2022/09/06 07:16:37;;;;;;;5.80;4.90;;;;;;;20.59;100.00;98314.84;5114167;28;20223;-71
2022/09/06 07:19:03;;;;;;;4.93;4.43;;;;;;;20.56;99.90;98316.03;5116699;28;20291;-70
2022/09/06 07:21:30;;;;;;;4.90;4.47;;;;;;;20.52;99.90;98311.97;5108947;28;20233;-71
2022/09/06 07:23:58;;;;;;;5.27;4.77;;;;;;;20.47;100.00;98306.25;5112867;28;20572;-70
2022/09/06 07:26:27;;;;;;;7.47;5.13;;;;;;;20.55;100.00;98318.88;5116700;28;20696;-70
2022/09/06 07:28:54;;;;;;;8.23;4.90;;;;;;;20.68;100.00;98320.09;5105400;28;20547;-70
2022/09/06 07:31:21;;;;;;;8.83;5.33;;;;;;;20.73;100.00;98325.78;5116579;28;20225;-70
2022/09/06 07:33:48;;;;;;;6.83;5.07;;;;;;;20.71;100.00;98319.75;5114119;28;20233;-70
2022/09/06 07:36:15;;;;;;;6.27;5.67;;;;;;;20.67;99.73;98321.06;5113193;28;20285;-70
2022/09/06 07:38:42;;;;;;;6.40;5.10;;;;;;;20.63;100.00;98319.75;5116222;28;20245;-70
2022/09/06 07:41:10;;;;;;;8.33;5.07;;;;;;;20.71;99.10;98327.81;5116348;28;20225;-70
2022/09/06 07:43:37;;;;;;;7.57;5.40;;;;;;;20.83;99.29;98323.81;5104142;28;20276;-70
2022/09/06 07:46:06;;;;;;;5.50;5.00;;;;;;;20.84;99.33;98321.97;5108493;28;20267;-70
2022/09/06 07:48:34;;;;;;;6.10;4.97;;;;;;;20.88;98.85;98313.44;5114728;28;20226;-69
2022/09/06 07:51:06;;;;;;;5.20;4.70;;;;;;;20.91;99.26;98326.53;5114739;28;20222;-71
2022/09/06 07:53:33;;;;;;;7.03;5.00;;;;;;;21.01;99.14;98329.91;5113338;28;20222;-69
2022/09/06 07:56:01;;;;;;;5.97;5.17;;;;;;;21.09;98.78;98324.53;5112466;28;20617;-69
2022/09/06 07:58:30;;;;;;;6.27;5.10;;;;;;;21.22;98.77;98324.88;5113030;28;20276;-69
2022/09/06 08:01:19;;;;;;;6.13;4.20;;;;;;;21.36;97.79;98315.31;5110582;28;20358;-69
2022/09/06 08:03:47;;;;;;;6.37;4.63;;;;;;;21.48;96.61;98317.50;5107387;28;20340;-67
2022/09/06 08:06:14;;;;;;;5.77;4.63;;;;;;;21.59;95.51;98308.22;5113522;28;20226;-68
2022/09/06 08:08:40;;;;;;;5.27;4.47;;;;;;;21.70;94.42;98305.22;5090080;28;20223;-70
2022/09/06 08:11:07;;;;;;;5.67;4.53;;;;;;;21.78;92.85;98306.06;5097745;28;20222;-68
2022/09/06 08:13:36;;;;;;;6.07;4.73;;;;;;;21.89;92.28;98302.97;5096696;28;20226;-69
2022/09/06 08:16:05;;;;;;;4.83;3.90;;;;;;;22.06;91.75;98299.22;5096930;28;20691;-69
2022/09/06 08:18:32;;;;;;;5.63;4.30;;;;;;;22.27;90.39;98307.59;5097207;28;20234;-68
2022/09/06 08:21:06;;;;;;;5.80;4.20;;;;;;;22.39;87.87;98297.25;5097991;28;20291;-69
2022/09/06 08:23:32;;;;;;;4.43;3.80;;;;;;;22.47;87.15;98300.78;5096716;28;20775;-69
2022/09/06 08:26:00;;;;;;;4.07;3.63;;;;;;;22.57;87.31;98304.09;5096441;28;20226;-70
2022/09/06 08:28:26;;;;;;;4.20;3.80;;;;;;;22.72;86.32;98302.31;5096801;28;20223;-68
2022/09/06 08:30:54;;;;;;;4.53;3.80;;;;;;;22.85;86.40;98302.56;5097346;28;20620;-70
2022/09/06 08:33:24;;;;;;;4.50;4.10;;;;;;;22.93;85.04;98294.41;5097308;28;20230;-67
2022/09/06 08:35:57;;;;;;;5.40;4.17;;;;;;;23.01;84.24;98297.06;5097276;28;20613;-67
2022/09/06 08:38:24;;;;;;;5.10;4.23;;;;;;;23.15;84.13;98303.53;5096050;28;20223;-68
2022/09/06 08:40:51;;;;;;;4.40;3.90;;;;;;;23.24;84.01;98297.94;5097688;28;21055;-67
2022/09/06 08:43:20;;;;;;;4.83;3.87;;;;;;;23.37;82.73;98305.41;5097182;28;20222;-74
2022/09/06 08:45:50;;;;;;;4.67;3.97;;;;;;;23.43;82.44;98304.69;5096398;28;20287;-73
2022/09/06 08:48:18;;;;;;;4.40;4.00;;;;;;;23.50;82.03;98303.78;5096823;28;20234;-74
2022/09/06 08:50:55;;;;;;;5.37;3.80;;;;;;;23.68;81.62;98295.34;5097808;28;20282;-72
2022/09/06 08:53:22;;;;;;;4.43;4.03;;;;;;;23.82;79.71;98289.09;5093503;28;20250;-72
2022/09/06 08:55:54;;;;;;;5.77;4.23;;;;;;;24.04;78.21;98291.78;5097588;28;20283;-70
2022/09/06 08:58:39;;;;;;;5.13;3.80;;;;;;;24.26;78.02;98290.81;5098205;28;20314;-71
2022/09/06 09:01:11;;;;;;;7.00;4.10;;;;;;;24.57;76.58;98294.16;5097450;28;20227;-70
2022/09/06 09:03:42;;;;;;;4.03;3.63;;;;;;;24.84;75.31;98293.44;5097481;28;20226;-71
2022/09/06 09:06:10;;;;;;;7.63;3.53;;;;;;;24.99;73.94;98288.81;5098015;28;20226;-72
2022/09/06 09:08:45;;;;;;;4.17;3.47;;;;;;;25.24;72.51;98281.19;5081823;28;20222;-71
2022/09/06 09:11:16;;;;;;;5.07;3.97;;;;;;;25.59;71.76;98281.06;5097315;28;20229;-71
2022/09/06 09:13:53;;;;;;;7.13;3.70;;;;;;;26.06;69.80;98283.94;5097231;28;20632;-71
2022/09/06 09:16:21;;;;;;;5.00;3.70;;;;;;;26.45;68.67;98278.72;5097928;28;20275;-71
2022/09/06 09:18:51;;;;;;;5.63;4.00;;;;;;;26.76;65.66;98275.53;5097079;28;20612;-71
2022/09/06 09:21:21;;;;;;;4.23;3.50;;;;;;;27.01;65.15;98269.31;5095329;28;20305;-72
2022/09/06 09:23:53;;;;;;;4.37;3.50;;;;;;;27.12;64.27;98271.44;5096712;28;20223;-72
2022/09/06 09:26:22;;;;;;;4.10;3.50;;;;;;;27.07;63.95;98271.22;5095990;28;20226;-72
2022/09/06 09:29:09;;;;;;;8.10;3.73;;;;;;;26.98;63.62;98264.31;5105661;28;20229;-71
2022/09/06 09:31:39;;;;;;;5.30;3.70;;;;;;;26.91;64.13;98274.34;5099627;28;20226;-70
2022/09/06 09:34:11;;;;;;;3.60;3.30;;;;;;;26.90;64.42;98272.66;5096277;28;20233;-72
2022/09/06 09:36:38;;;;;;;5.50;3.70;;;;;;;26.95;64.08;98274.75;5096986;28;20284;-71
2022/09/06 09:39:10;;;;;;;3.80;3.40;;;;;;;27.03;63.43;98264.56;5096983;28;20300;-70
2022/09/06 09:41:40;;;;;;;4.97;3.43;;;;;;;27.15;62.04;98265.63;5097368;28;20223;-70
2022/09/06 09:44:11;;;;;;;4.47;3.27;;;;;;;27.38;63.37;98271.50;5096889;28;20230;-70
2022/09/06 09:46:39;;;;;;;5.50;3.53;;;;;;;27.63;61.21;98272.56;5094816;28;20215;-70
2022/09/06 09:49:09;;;;;;;3.70;3.30;;;;;;;27.77;61.52;98272.34;5096698;28;20231;-70
2022/09/06 09:51:38;;;;;;;4.73;3.40;;;;;;;27.84;59.52;98269.63;5097110;28;20678;-70
2022/09/06 09:54:07;;;;;;;6.13;3.40;;;;;;;27.78;58.13;98267.75;5096621;28;20555;-70
2022/09/06 09:56:39;;;;;;;3.88;3.42;;;;;;;27.72;59.01;98265.84;5096623;28;20226;-70
2022/09/06 09:59:20;;;;;;;5.68;3.30;;;;;;;27.56;57.11;98263.56;5096665;28;20226;-71
2022/09/06 10:01:48;;;;;;;4.63;2.90;;;;;;;27.47;56.06;98259.41;5081585;28;20226;-70
2022/09/06 10:04:22;;;;;;;4.32;3.30;;;;;;;27.42;56.02;98267.31;5096531;28;20219;-70
2022/09/06 10:06:48;;;;;;;4.97;3.03;;;;;;;27.45;56.55;98272.34;5096515;28;20258;-70
2022/09/06 10:09:20;;;;;;;5.07;3.05;;;;;;;27.46;57.25;98268.59;5097073;28;20283;-70
2022/09/06 10:11:54;;;;;;;5.10;3.10;;;;;;;27.59;55.86;98263.97;5096398;28;20358;-70
2022/09/06 10:14:27;;;;;;;7.13;3.53;;;;;;;27.74;54.19;98264.59;5094672;28;20308;-69
2022/09/06 10:16:54;;;;;;;6.63;2.90;;;;;;;27.93;53.01;98260.19;5096418;28;20570;-70
2022/09/06 10:19:34;;;;;;;5.30;3.10;;;;;;;28.04;51.68;98262.28;5096472;28;20323;-69
2022/09/06 10:22:14;;;;;;;5.10;2.70;;;;;;;28.03;50.74;98257.88;5096177;28;20219;-71
2022/09/06 10:24:56;;;;;;;4.90;3.03;;;;;;;28.12;51.53;98259.34;5096258;28;20268;-70
2022/09/06 10:27:26;;;;;;;6.50;3.33;;;;;;;28.11;51.51;98252.22;5096199;28;20279;-70
2022/09/06 10:30:01;;;;;;;4.97;3.00;;;;;;;28.25;50.63;98259.31;5096300;28;20219;-69
2022/09/06 10:32:40;;;;;;;4.38;2.80;;;;;;;28.16;51.25;98255.13;5096436;28;20229;-69
2022/09/06 10:35:16;;;;;;;5.47;3.00;;;;;;;28.15;50.37;98242.59;5096414;28;20230;-69
2022/09/06 10:37:50;;;;;;;3.92;2.95;;;;;;;28.17;51.92;98243.22;5098086;28;20222;-69
2022/09/06 10:40:29;;;;;;;4.90;3.35;;;;;;;28.31;50.73;98240.22;5098465;28;20242;-69
2022/09/06 10:42:59;;;;;;;6.50;3.00;;;;;;;28.40;51.67;98233.56;5099886;28;20230;-70
2022/09/06 10:45:35;;;;;;;4.82;2.80;;;;;;;28.56;51.00;98243.09;5100395;28;20534;-70
2022/09/06 10:48:08;;;;;;;4.53;3.10;;;;;;;28.67;49.66;98234.28;5100159;28;20226;-70
2022/09/06 10:50:44;;;;;;;2.70;2.50;;;;;;;28.73;50.06;98236.13;5100720;28;20262;-70
2022/09/06 10:53:30;;;;;;;6.67;3.00;;;;;;;28.84;49.27;98238.97;5100008;28;20283;-71
2022/09/06 10:56:04;;;;;;;6.38;3.40;;;;;;;28.88;49.49;98233.91;5099820;28;20279;-70
2022/09/06 10:58:34;;;;;;;4.25;3.03;;;;;;;28.90;49.94;98231.81;5100693;28;20229;-70
2022/09/06 11:01:01;;;;;;;4.45;2.83;;;;;;;28.93;49.16;98234.91;5099881;28;20242;-70
2022/09/06 11:03:32;;;;;;;5.78;3.30;;;;;;;28.78;50.17;98230.81;5099962;28;20311;-70
2022/09/06 11:06:04;;;;;;;5.97;3.20;;;;;;;28.78;49.31;98222.66;5099900;28;20351;-70
2022/09/06 11:08:38;;;;;;;4.65;3.10;;;;;;;28.65;49.16;98225.47;5097972;28;20226;-71
2022/09/06 11:11:11;;;;;;;7.75;3.30;;;;;;;28.71;50.51;98213.72;5099887;28;20227;-69
2022/09/06 11:13:38;;;;;;;5.05;3.53;;;;;;;28.75;50.59;98206.78;5099718;28;20222;-71
2022/09/06 11:16:10;;;;;;;5.22;3.28;;;;;;;28.84;49.77;98213.63;5100371;28;20283;-69
2022/09/06 11:18:43;;;;;;;5.90;3.08;;;;;;;28.83;49.61;98209.25;5099650;28;20227;-70
2022/09/06 11:21:35;;;;;;;4.30;3.22;;;;;;;28.89;49.09;98219.25;5099422;28;20242;-70
2022/09/06 11:24:11;;;;;;;7.93;3.25;;;;;;;28.81;49.29;98211.38;5096412;28;20231;-71
2022/09/06 11:26:44;;;;;;;6.43;3.30;;;;;;;28.70;49.86;98212.06;5099551;28;20530;-71
2022/09/06 11:29:18;;;;;;;5.07;3.42;;;;;;;28.74;49.38;98216.84;5099502;28;20219;-70
2022/09/06 11:31:53;;;;;;;5.80;3.20;;;;;;;28.71;49.36;98221.88;5100143;28;20257;-72
2022/09/06 11:34:25;;;;;;;5.80;3.00;;;;;;;28.81;49.46;98222.25;5097696;28;20694;-70
2022/09/06 11:36:56;;;;;;;5.15;3.30;;;;;;;28.79;49.35;98216.19;5099365;28;20254;-70
2022/09/06 11:39:29;;;;;;;4.75;2.90;;;;;;;28.80;49.76;98215.97;5099143;28;20227;-70
2022/09/06 11:41:56;;;;;;;4.70;2.90;;;;;;;28.94;49.27;98219.44;5098871;28;20276;-69
2022/09/06 11:44:53;;;;;;;4.38;2.90;;;;;;;28.81;49.16;98216.81;5099193;28;20226;-70